Mesabi Miner — WYQ4356 — position and weather

sailwx.info

Track history (hours):
 
Tides and Currents Weather Stations Pressure Air Temp Water Temp Dewpoint Dewpoint Depression Visibility Wind Speed Wind Dir Waves Ship Positions

Mesabi Miner

Owner: THE INTERLAKE STEAMSHIP COMPANY, Middleburg Heights, OH. More information available from US FCC via Universal Licensing System and Coast Guard Vessel Documentation Center.

Last reported at 2017-Dec-18 06:00 UTC. Time now 2017-Dec-18 07:01 UTC.
Position N 41°30' W 081°42'.

Length 305 m; draft 6.2 m.

Type: Cargo ship. MMSI: 366904880.

Wind from 160 at 8 knots

Barometer 1025.2 mb
Air temperature 4.7 ° C
Water temperature 2.0 ° C

Date/timePositionNaut miles runAvg speedWind from/ knotsBaromVisibWave heightAir tempDewpointWater temp
2017-Dec-18 06:00N 41°30' W 081°42'0 0.0 160 / 81025.2 4.7 2.0
2017-Dec-18 05:00N 41°30' W 081°42'0 0.0 100 / 91025.2 3.6 2.0
2017-Dec-18 04:00N 41°30' W 081°42'0 0.0 110 / 101024.5 3.2 2.1
2017-Dec-18 03:00N 41°30' W 081°42'0 0.0 100 / 81025.9 3.9 2.1
2017-Dec-18 02:00N 41°30' W 081°42'0 0.0 100 / 91025.9 3.4 2.1
2017-Dec-18 01:00N 41°30' W 081°42'0 0.0 090 / 71025.2 2.9 2.2
2017-Dec-18 00:00N 41°30' W 081°42'0 0.0 100 / 41025.2 3.1 2.2
2017-Dec-17 23:00N 41°30' W 081°42'7 7.5 190 / 81025.6 3.4 2.2
2017-Dec-17 22:00N 41°36' W 081°48'9 9.0 160 / 31026.6 3.4 3.4
2017-Dec-17 21:00N 41°36' W 082°00'5210.5 060 / 21026.6 2.4 2.8
2017-Dec-17 16:00N 41°54' W 083°06'6 6.0 110 / 101021.2 0.8 0.1
2017-Dec-17 15:00N 42°00' W 083°06'6 6.0 070 / 121022.5 -1.9 0.1
2017-Dec-17 14:00N 42°06' W 083°06'1212.0 070 / 141022.3 -2.4 0.1
2017-Dec-17 13:00N 42°18' W 083°06'1110.7 070 / 111022.3 -1.9 0.2
2017-Dec-17 12:00N 42°24' W 082°54'7 7.5 060 / 161023.0 -1.6 0.1
2017-Dec-17 11:00N 42°30' W 082°48'9 8.8 140 / 151023.0 -3.2 1.1
2017-Dec-17 10:00N 42°30' W 082°36'1312.8 060 / 101023.0 -4.4 2.0
2017-Dec-17 09:00N 42°42' W 082°30'6 6.0 050 / 91022.8 -5.3 1.8
2017-Dec-17 08:00N 42°48' W 082°30'1312.8 050 / 111023.2 -5.2 1.9
2017-Dec-17 07:00N 43°00' W 082°24'6 6.0 040 / 81023.5 -5.0 2.2
2017-Dec-17 06:00N 43°06' W 082°24'1212.0 080 / 131022.8 -3.4 3.0
2017-Dec-17 05:00N 43°18' W 082°24'1212.0 070 / 131022.1 -3.7 2.4
2017-Dec-17 04:00N 43°30' W 082°24'1312.8 100 / 91022.8 -3.9 3.3
2017-Dec-17 03:00N 43°42' W 082°30'1212.0 060 / 81022.5 -4.0 4.2
2017-Dec-17 02:00N 43°54' W 082°30'1312.8 040 / 71022.5 -4.6 4.4
2017-Dec-17 01:00N 44°06' W 082°36'1312.7 060 / 121022.5 -5.5 4.3
2017-Dec-17 00:00N 44°18' W 082°42'6212.5 030 / 131021.8 -6.6 4.5
2017-Dec-16 19:00N 45°18' W 083°06'1010.3 330 / 91018.8 -10.8 4.4
2017-Dec-16 18:00N 45°24' W 083°18'2314.3 010 / 121018.8 -11.5 4.3
2017-Dec-16 16:23N 45°42' W 083°38'512.5
2017-Dec-16 16:00N 45°46' W 083°42'1211.4
2017-Dec-16 15:00N 45°54' W 083°54'1312.7 060 / 171018.1 -15.7 1.0
2017-Dec-16 14:00N 46°06' W 084°00'7 7.3 030 / 81017.4 -18.7 0.2
2017-Dec-16 13:00N 46°12' W 084°06'7 7.3 040 / 81016.7 -18.3 0.2
2017-Dec-16 12:00N 46°18' W 084°12'0 0.0 030 / 61015.4 -17.4 0.3
2017-Dec-16 11:00N 46°18' W 084°12'1312.7 060 / 101014.3 -16.5 0.7
2017-Dec-16 10:00N 46°30' W 084°18'0 0.0 030 / 81013.3 -16.4 1.1
2017-Dec-16 09:00N 46°30' W 084°18'4 4.1 060 / 21012.3 -15.1 0.9
2017-Dec-16 08:00N 46°30' W 084°24'0 0.0 070 / 61011.9 -15.5 0.9
2017-Dec-16 07:00N 46°30' W 084°24'0 0.0 040 / 111010.8 -14.1 1.0
2017-Dec-16 06:00N 46°30' W 084°24'0 0.0 340 / 151010.5 -11.9 1.0
2017-Dec-16 05:00N 46°30' W 084°24'4 4.1 350 / 101009.5 -11.5 1.5
2017-Dec-16 04:00N 46°30' W 084°30'4 4.1 010 / 111008.5 -9.7 1.5
2017-Dec-16 03:00N 46°30' W 084°36'1514.6 340 / 211007.8 -6.5 2.6
2017-Dec-16 02:00N 46°42' W 084°48'1010.2 340 / 201007.5 -6.5 3.8
2017-Dec-16 01:00N 46°48' W 085°00'1413.7 310 / 201007.1 -6.3 3.0
2017-Dec-16 00:00N 46°54' W 085°18'1010.2 330 / 191007.1 -6.5 3.9
2017-Dec-15 23:00N 47°00' W 085°30'7512.6 320 / 241006.8 -6.2 4.2
2017-Dec-15 17:00N 47°30' W 087°12'1413.5 350 / 241006.8 5.4 -7.2 3.8
2017-Dec-15 16:00N 47°36' W 087°30'1212.1 330 / 211007.1 -6.5 3.8
2017-Dec-15 15:00N 47°36' W 087°48'1212.1 330 / 211007.1 -7.1 3.9
2017-Dec-15 14:00N 47°36' W 088°06'1212.1 330 / 231007.5 -7.4 3.8
2017-Dec-15 13:00N 47°36' W 088°24'1413.5 320 / 221007.8 -7.2 3.8
2017-Dec-15 12:00N 47°30' W 088°42'1212.2 340 / 191008.5 -7.5 3.8
2017-Dec-15 11:00N 47°30' W 089°00'1212.2 340 / 201008.8 -7.3 3.8
2017-Dec-15 10:00N 47°30' W 089°18'1413.6 340 / 161009.110.8 -7.3 3.9
2017-Dec-15 09:00N 47°24' W 089°36'1212.2 340 / 161009.5 -7.3 3.9
2017-Dec-15 08:00N 47°24' W 089°54'1212.2 320 / 141009.8 -7.3 3.5
2017-Dec-15 07:00N 47°24' W 090°12'1413.6 320 / 161010.2 -7.2 3.2
2017-Dec-15 06:00N 47°18' W 090°30'1212.2 330 / 191010.8 -7.3 3.0
2017-Dec-15 05:00N 47°18' W 090°48'1212.2 320 / 151011.9 -7.6 3.8
2017-Dec-15 04:00N 47°18' W 091°06'8 8.1 300 / 121012.5 -8.3 3.8
2017-Dec-15 03:00N 47°18' W 091°18'0 0.0 060 / 31012.9 -8.2 3.1
2017-Dec-15 02:00N 47°18' W 091°18'0 0.0 140 / 11013.2 -7.9 3.0
2017-Dec-15 01:00N 47°18' W 091°18'0 0.0 190 / 31013.9 -6.5 3.2
2017-Dec-15 00:00N 47°18' W 091°18'0 0.0 230 / 41014.2 -7.0 3.1
2017-Dec-14 23:00N 47°18' W 091°18'0 0.0 180 / 41014.6 -6.3 3.1
2017-Dec-14 22:00N 47°18' W 091°18'0 0.0 180 / 21014.2 -6.0 3.1
2017-Dec-14 21:00N 47°18' W 091°18'0 0.0 210 / 21014.2 -5.4 3.2
2017-Dec-14 20:00N 47°18' W 091°18'0 0.0 290 / 21014.2 -5.1 3.2
2017-Dec-14 19:00N 47°18' W 091°18'0 0.0 170 / 21014.9 -5.5 2.9
2017-Dec-14 18:00N 47°18' W 091°18'0 0.0 230 / 21014.9 -6.5 2.8
2017-Dec-14 17:00N 47°18' W 091°18'0 0.0 320 / 51015.6 -7.7 2.8
2017-Dec-14 16:00N 47°18' W 091°18'0 0.0 290 / 41016.3 -8.0 2.8
2017-Dec-14 15:00N 47°18' W 091°18'0 0.0 150 / 11016.3 -9.5 2.9
2017-Dec-14 14:00N 47°18' W 091°18'0 0.0 260 / 21015.6 -11.3 2.9
2017-Dec-14 13:00N 47°18' W 091°18'27511.5 300 / 11015.2 -11.1 2.9
2017-Dec-13 13:00N 46°30' W 084°42'45 6.4 140 / 311008.1 -19.2 3.3
2017-Dec-13 06:00N 46°00' W 083°54'8 8.8 120 / 351009.6 -17.4 0.6
2017-Dec-13 05:03N 45°52' W 083°50'241.7
2017-Dec-13 05:00N 45°54' W 083°48'351.7 160 / 331009.6 -15.1 4.2
2017-Dec-13 04:56N 45°51' W 083°49'510.8
2017-Dec-13 04:30N 45°47' W 083°45'510.7
2017-Dec-13 04:00N 45°43' W 083°41'1121.9
2017-Dec-13 04:00N 45°42' W 083°42'510.5 1009.9 -13.9 4.3
2017-Dec-13 03:30N 45°38' W 083°37'510.5
2017-Dec-13 03:00N 45°34' W 083°33'510.3
2017-Dec-13 02:30N 45°30' W 083°28'510.1
2017-Dec-13 02:00N 45°26' W 083°24'2119.5
2017-Dec-13 02:00N 45°24' W 083°24'3 7.2 1009.6 -12.0 4.5
2017-Dec-13 01:31N 45°22' W 083°20'4 7.7
2017-Dec-13 01:00N 45°18' W 083°18'1010.4 320 / 161009.6 -11.0 4.6
2017-Dec-13 00:00N 45°12' W 083°06'1212.0 320 / 191008.9 -9.8 4.3
2017-Dec-12 23:00N 45°00' W 083°06'6 6.0 300 / 321006.9 -9.6 4.3
2017-Dec-12 22:00N 44°54' W 083°06'1212.0 300 / 301007.6 -9.7 3.7
2017-Dec-12 21:00N 44°42' W 083°06'31 6.2 300 / 341007.2 -10.5 3.8
2017-Dec-12 16:00N 44°12' W 082°54'7 7.4 320 / 251007.6 -10.2 5.0
2017-Dec-12 15:00N 44°06' W 082°48'7 7.4 340 / 301006.2 -9.4 4.6
2017-Dec-12 14:00N 44°00' W 082°42'7 7.4 290 / 271005.9 -8.9 3.9
2017-Dec-12 13:00N 43°54' W 082°36'4 4.3 290 / 301004.9 -7.5 4.3
2017-Dec-12 12:00N 43°54' W 082°30'1212.0 290 / 331003.5 -5.6 4.0
2017-Dec-12 11:00N 43°42' W 082°30'6 6.0 300 / 241004.2 -5.6 3.3
2017-Dec-12 10:00N 43°36' W 082°30'1212.0 290 / 321001.5 -4.2 3.8
2017-Dec-12 09:00N 43°24' W 082°30'1312.8 300 / 271002.2 -2.1 4.4
2017-Dec-12 08:00N 43°12' W 082°24'1212.0 310 / 231001.1 -1.5 4.1
2017-Dec-12 07:00N 43°00' W 082°24'7 7.4 300 / 91002.5 -1.3 4.2
2017-Dec-12 06:00N 42°54' W 082°30'6 6.0 210 / 51002.8 -1.6 4.2
2017-Dec-12 05:00N 42°48' W 082°30'1212.0 020 / 41003.5 -1.4 4.1
2017-Dec-12 04:00N 42°36' W 082°30'1110.7 250 / 61004.5 -0.5 4.0
2017-Dec-12 03:00N 42°30' W 082°42'7 7.5 200 / 111005.4 -0.4 3.8
2017-Dec-12 02:00N 42°24' W 082°48'1110.7 210 / 91006.4 -1.1 2.1
2017-Dec-12 01:00N 42°18' W 083°00'7 7.5 180 / 41007.0 -1.5 1.8
2017-Dec-12 00:00N 42°12' W 083°06'6 6.0 140 / 61007.0 -1.6 1.9
2017-Dec-11 23:00N 42°06' W 083°06'1212.0 140 / 81007.7 -1.0 1.8
2017-Dec-11 22:00N 41°54' W 083°06'7 7.5 170 / 131008.6 -0.6 2.0
2017-Dec-11 21:00N 41°48' W 083°12'1110.8 140 / 141009.0 -0.3 1.8
2017-Dec-11 20:00N 41°42' W 083°24'0 0.0 170 / 101010.0 -0.3 1.5
2017-Dec-11 19:00N 41°42' W 083°24'0 0.0 250 / 81011.0 -0.8 1.0
2017-Dec-11 18:00N 41°42' W 083°24'0 0.0 260 / 91012.7 -1.5 1.0
2017-Dec-11 17:00N 41°42' W 083°24'0 0.0 240 / 61013.7 -2.0 1.0
2017-Dec-11 16:00N 41°42' W 083°24'0 0.0 250 / 81015.4 -2.3 1.0
2017-Dec-11 15:00N 41°42' W 083°24'0 0.0 220 / 81015.7 -3.5 1.0
2017-Dec-11 14:00N 41°42' W 083°24'0 0.0 260 / 31017.4 -2.5 1.0
2017-Dec-11 13:00N 41°42' W 083°24'0 0.0 240 / 41017.4 -2.9 1.0
2017-Dec-11 12:00N 41°42' W 083°24'0 0.0 280 / 41017.4 -3.6 1.0
2017-Dec-11 11:00N 41°42' W 083°24'0 0.0 080 / 21017.1 -3.3 1.4
2017-Dec-11 10:00N 41°42' W 083°24'0 0.0 280 / 51017.8 -3.7 1.2
2017-Dec-11 09:00N 41°42' W 083°24'7 7.5 300 / 81017.1 -3.5 0.3
2017-Dec-11 08:00N 41°48' W 083°18'4 4.5 310 / 111016.4 -2.7 1.8
2017-Dec-11 07:00N 41°48' W 083°12'1110.8 320 / 171015.7 -2.0 2.1
2017-Dec-11 06:00N 41°54' W 083°00'4 4.5 320 / 191015.4 -1.7 2.0
2017-Dec-11 05:00N 41°54' W 082°54'4 4.5 320 / 201014.4 -1.3 2.6
2017-Dec-11 04:00N 41°54' W 082°48'0 0.0 300 / 181014.4 -1.0 2.6
2017-Dec-11 03:00N 41°54' W 082°48'0 0.0 280 / 181014.0 -0.3 2.7
2017-Dec-11 02:00N 41°54' W 082°48'0 0.0 240 / 181013.7 -0.5 2.9
2017-Dec-11 01:00N 41°54' W 082°48'0 0.0 230 / 201013.7 -0.7 2.9
2017-Dec-11 00:00N 41°54' W 082°48'0 0.0 240 / 181013.7 -1.0 3.0
2017-Dec-10 23:00N 41°54' W 082°48'0 0.0 240 / 201013.4 -1.0 3.0
2017-Dec-10 22:00N 41°54' W 082°48'0 0.0 240 / 191013.4 -1.5 3.0
2017-Dec-10 21:00N 41°54' W 082°48'0 0.0 240 / 181012.7 -2.0 3.0
2017-Dec-10 20:00N 41°54' W 082°48'0 0.0 230 / 191012.0 -2.2 3.0
2017-Dec-10 19:00N 41°54' W 082°48'0 0.0 240 / 211012.4 -2.8 3.0
2017-Dec-10 18:00N 41°54' W 082°48'0 0.0 230 / 221012.7 -3.2 3.0
2017-Dec-10 17:00N 41°54' W 082°48'0 0.0 230 / 231013.0 -3.5 3.0
2017-Dec-10 16:00N 41°54' W 082°48'0 0.0 230 / 231014.0 -3.4 2.8
2017-Dec-10 15:00N 41°54' W 082°48'0 0.0 220 / 221014.0 -3.4 2.8
2017-Dec-10 14:00N 41°54' W 082°48'0 0.0 240 / 201014.0 -1.9 2.7
2017-Dec-10 13:00N 41°54' W 082°48'0 0.0 240 / 201013.7 -1.7 2.8
2017-Dec-10 12:00N 41°54' W 082°48'0 0.0 250 / 191014.0 -1.6 2.8
2017-Dec-10 11:00N 41°54' W 082°48'0 0.0 250 / 181013.7 -2.0 2.8
2017-Dec-10 10:00N 41°54' W 082°48'0 0.0 260 / 111013.7 -2.5 2.8
2017-Dec-10 09:00N 41°54' W 082°48'0 0.0 260 / 131013.7 -2.8 2.8
2017-Dec-10 08:00N 41°54' W 082°48'0 0.0 310 / 181013.7 -2.2 2.8
2017-Dec-10 07:00N 41°54' W 082°48'0 0.0 290 / 181013.4 -1.9 2.8
2017-Dec-10 06:00N 41°54' W 082°48'0 0.0 310 / 171013.0 -1.4 2.8
2017-Dec-10 05:00N 41°54' W 082°48'0 0.0 300 / 151012.4 -1.7 2.8
2017-Dec-10 04:00N 41°54' W 082°48'0 0.0 310 / 151012.0 -1.7 2.7
2017-Dec-10 03:00N 41°54' W 082°48'0 0.0 300 / 141011.3 -1.6 2.8
2017-Dec-10 02:00N 41°54' W 082°48'9 8.9 310 / 121011.3 -1.6 3.0
2017-Dec-10 01:00N 41°54' W 083°00'7 7.5 310 / 131011.0 -2.2 2.3
2017-Dec-10 00:00N 42°00' W 083°06'6 6.0 300 / 111010.3 -2.8 2.5
2017-Dec-09 23:00N 42°06' W 083°06'6 6.0 310 / 61009.8 -3.1 2.7
2017-Dec-09 22:00N 42°12' W 083°06'7 7.5 280 / 71008.7 -2.8 2.6
2017-Dec-09 21:00N 42°18' W 083°00'1110.7 320 / 51007.7 -2.6 2.7
2017-Dec-09 20:00N 42°24' W 082°48'7 7.5 270 / 81006.7 -2.5 2.6
2017-Dec-09 19:00N 42°30' W 082°42'7 7.5 200 / 91006.0 -2.4 4.2
2017-Dec-09 18:00N 42°36' W 082°36'7 7.4 200 / 61006.9 -2.2 4.3
2017-Dec-09 17:00N 42°42' W 082°30'1212.0 210 / 71007.2 -2.3 4.4
2017-Dec-09 16:00N 42°54' W 082°30'24 8.1 210 / 81007.6 -2.5 4.4
2017-Dec-09 13:00N 43°18' W 082°24'1212.0 210 / 131006.6 -1.6 5.3
2017-Dec-09 12:00N 43°30' W 082°24'1918.5 180 / 51006.9 -2.6 5.2
2017-Dec-09 11:00N 43°48' W 082°30'1212.0 230 / 101007.2 -2.5 4.4
2017-Dec-09 10:00N 44°00' W 082°30'1312.8 210 / 91007.2 -2.7 5.1
2017-Dec-09 09:00N 44°12' W 082°36'1312.7 200 / 111007.6 -2.3 5.2
2017-Dec-09 08:00N 44°24' W 082°42'4411.0 220 / 111007.9 -2.2 5.2
2017-Dec-09 04:00N 45°06' W 083°00'3613.5 210 / 61008.6 -3.8 4.9
2017-Dec-09 01:20N 45°35' W 083°30'412.2
2017-Dec-09 01:00N 45°38' W 083°34'612.2
2017-Dec-09 00:30N 45°43' W 083°39'2013.3
2017-Dec-08 23:00N 46°00' W 083°54'7 7.3 340 / 61002.8 -7.3 3.4
2017-Dec-08 22:00N 46°06' W 084°00'7 7.3 310 / 101002.8 -7.0 2.4
2017-Dec-08 21:00N 46°12' W 084°06'7 7.3 340 / 61004.2 -7.2 2.3
2017-Dec-08 20:00N 46°18' W 084°12'6 6.0 350 / 121001.8 -7.4 2.7
2017-Dec-08 19:00N 46°24' W 084°12'7 7.3 320 / 101001.5 -7.9 3.1
2017-Dec-08 18:00N 46°30' W 084°18'4 4.1 340 / 151001.5 -7.2 3.3
2017-Dec-08 17:00N 46°30' W 084°24'0 0.0 340 / 9998.6 -7.8 3.4
2017-Dec-08 16:00N 46°30' W 084°24'4 4.1 360 / 13998.3 -7.2 3.5
2017-Dec-08 15:00N 46°30' W 084°30'1010.2 350 / 201001.0 -5.9 3.7
2017-Dec-08 14:00N 46°36' W 084°42'1010.2 340 / 201006.8 -4.0 4.8
2017-Dec-08 13:00N 46°42' W 084°54'1514.5 350 / 191008.5 -3.3 4.9
2017-Dec-08 12:00N 46°54' W 085°06'1212.3 340 / 171003.4 -5.0 4.0
2017-Dec-08 11:00N 46°54' W 085°24'1010.2 350 / 221005.8 -4.4 4.9
2017-Dec-08 10:00N 47°00' W 085°36'   320 / 211006.4 -4.3 4.5
Track history (hours):
 
Tides and Currents Weather Stations Pressure Air Temp Water Temp Dewpoint Dewpoint Depression Visibility Wind Speed Wind Dir Waves Ship Positions

Mesabi Miner

Owner: THE INTERLAKE STEAMSHIP COMPANY, Middleburg Heights, OH. More information available from US FCC via Universal Licensing System and Coast Guard Vessel Documentation Center.

Last reported at 2017-Dec-18 06:00 UTC. Time now 2017-Dec-18 07:01 UTC.
Position N 41°30' W 081°42'.

Length 305 m; draft 6.2 m.

Type: Cargo ship. MMSI: 366904880.

Wind from 160 at 8 knots

Barometer 1025.2 mb
Air temperature 4.7 ° C
Water temperature 2.0 ° C

Date/timePositionNaut miles runAvg speedWind from/ knotsBaromVisibWave heightAir tempDewpointWater temp
2017-Dec-18 06:00N 41°30' W 081°42'0 0.0 160 / 81025.2 4.7 2.0
2017-Dec-18 05:00N 41°30' W 081°42'0 0.0 100 / 91025.2 3.6 2.0
2017-Dec-18 04:00N 41°30' W 081°42'0 0.0 110 / 101024.5 3.2 2.1
2017-Dec-18 03:00N 41°30' W 081°42'0 0.0 100 / 81025.9 3.9 2.1
2017-Dec-18 02:00N 41°30' W 081°42'0 0.0 100 / 91025.9 3.4 2.1
2017-Dec-18 01:00N 41°30' W 081°42'0 0.0 090 / 71025.2 2.9 2.2
2017-Dec-18 00:00N 41°30' W 081°42'0 0.0 100 / 41025.2 3.1 2.2
2017-Dec-17 23:00N 41°30' W 081°42'7 7.5 190 / 81025.6 3.4 2.2
2017-Dec-17 22:00N 41°36' W 081°48'9 9.0 160 / 31026.6 3.4 3.4
2017-Dec-17 21:00N 41°36' W 082°00'5210.5 060 / 21026.6 2.4 2.8
2017-Dec-17 16:00N 41°54' W 083°06'6 6.0 110 / 101021.2 0.8 0.1
2017-Dec-17 15:00N 42°00' W 083°06'6 6.0 070 / 121022.5 -1.9 0.1
2017-Dec-17 14:00N 42°06' W 083°06'1212.0 070 / 141022.3 -2.4 0.1
2017-Dec-17 13:00N 42°18' W 083°06'1110.7 070 / 111022.3 -1.9 0.2
2017-Dec-17 12:00N 42°24' W 082°54'7 7.5 060 / 161023.0 -1.6 0.1
2017-Dec-17 11:00N 42°30' W 082°48'9 8.8 140 / 151023.0 -3.2 1.1
2017-Dec-17 10:00N 42°30' W 082°36'1312.8 060 / 101023.0 -4.4 2.0
2017-Dec-17 09:00N 42°42' W 082°30'6 6.0 050 / 91022.8 -5.3 1.8
2017-Dec-17 08:00N 42°48' W 082°30'1312.8 050 / 111023.2 -5.2 1.9
2017-Dec-17 07:00N 43°00' W 082°24'6 6.0 040 / 81023.5 -5.0 2.2
2017-Dec-17 06:00N 43°06' W 082°24'1212.0 080 / 131022.8 -3.4 3.0
2017-Dec-17 05:00N 43°18' W 082°24'1212.0 070 / 131022.1 -3.7 2.4
2017-Dec-17 04:00N 43°30' W 082°24'1312.8 100 / 91022.8 -3.9 3.3
2017-Dec-17 03:00N 43°42' W 082°30'1212.0 060 / 81022.5 -4.0 4.2
2017-Dec-17 02:00N 43°54' W 082°30'1312.8 040 / 71022.5 -4.6 4.4
2017-Dec-17 01:00N 44°06' W 082°36'1312.7 060 / 121022.5 -5.5 4.3
2017-Dec-17 00:00N 44°18' W 082°42'6212.5 030 / 131021.8 -6.6 4.5
2017-Dec-16 19:00N 45°18' W 083°06'1010.3 330 / 91018.8 -10.8 4.4
2017-Dec-16 18:00N 45°24' W 083°18'2314.3 010 / 121018.8 -11.5 4.3
2017-Dec-16 16:23N 45°42' W 083°38'512.5
2017-Dec-16 16:00N 45°46' W 083°42'1211.4
2017-Dec-16 15:00N 45°54' W 083°54'1312.7 060 / 171018.1 -15.7 1.0
2017-Dec-16 14:00N 46°06' W 084°00'7 7.3 030 / 81017.4 -18.7 0.2
2017-Dec-16 13:00N 46°12' W 084°06'7 7.3 040 / 81016.7 -18.3 0.2
2017-Dec-16 12:00N 46°18' W 084°12'0 0.0 030 / 61015.4 -17.4 0.3
2017-Dec-16 11:00N 46°18' W 084°12'1312.7 060 / 101014.3 -16.5 0.7
2017-Dec-16 10:00N 46°30' W 084°18'0 0.0 030 / 81013.3 -16.4 1.1
2017-Dec-16 09:00N 46°30' W 084°18'4 4.1 060 / 21012.3 -15.1 0.9
2017-Dec-16 08:00N 46°30' W 084°24'0 0.0 070 / 61011.9 -15.5 0.9
2017-Dec-16 07:00N 46°30' W 084°24'0 0.0 040 / 111010.8 -14.1 1.0
2017-Dec-16 06:00N 46°30' W 084°24'0 0.0 340 / 151010.5 -11.9 1.0
2017-Dec-16 05:00N 46°30' W 084°24'4 4.1 350 / 101009.5 -11.5 1.5
2017-Dec-16 04:00N 46°30' W 084°30'4 4.1 010 / 111008.5 -9.7 1.5
2017-Dec-16 03:00N 46°30' W 084°36'1514.6 340 / 211007.8 -6.5 2.6
2017-Dec-16 02:00N 46°42' W 084°48'1010.2 340 / 201007.5 -6.5 3.8
2017-Dec-16 01:00N 46°48' W 085°00'1413.7 310 / 201007.1 -6.3 3.0
2017-Dec-16 00:00N 46°54' W 085°18'1010.2 330 / 191007.1 -6.5 3.9
2017-Dec-15 23:00N 47°00' W 085°30'7512.6 320 / 241006.8 -6.2 4.2
2017-Dec-15 17:00N 47°30' W 087°12'1413.5 350 / 241006.8 5.4 -7.2 3.8
2017-Dec-15 16:00N 47°36' W 087°30'1212.1 330 / 211007.1 -6.5 3.8
2017-Dec-15 15:00N 47°36' W 087°48'1212.1 330 / 211007.1 -7.1 3.9
2017-Dec-15 14:00N 47°36' W 088°06'1212.1 330 / 231007.5 -7.4 3.8
2017-Dec-15 13:00N 47°36' W 088°24'1413.5 320 / 221007.8 -7.2 3.8
2017-Dec-15 12:00N 47°30' W 088°42'1212.2 340 / 191008.5 -7.5 3.8
2017-Dec-15 11:00N 47°30' W 089°00'1212.2 340 / 201008.8 -7.3 3.8
2017-Dec-15 10:00N 47°30' W 089°18'1413.6 340 / 161009.110.8 -7.3 3.9
2017-Dec-15 09:00N 47°24' W 089°36'1212.2 340 / 161009.5 -7.3 3.9
2017-Dec-15 08:00N 47°24' W 089°54'1212.2 320 / 141009.8 -7.3 3.5
2017-Dec-15 07:00N 47°24' W 090°12'1413.6 320 / 161010.2 -7.2 3.2
2017-Dec-15 06:00N 47°18' W 090°30'1212.2 330 / 191010.8 -7.3 3.0
2017-Dec-15 05:00N 47°18' W 090°48'1212.2 320 / 151011.9 -7.6 3.8
2017-Dec-15 04:00N 47°18' W 091°06'8 8.1 300 / 121012.5 -8.3 3.8
2017-Dec-15 03:00N 47°18' W 091°18'0 0.0 060 / 31012.9 -8.2 3.1
2017-Dec-15 02:00N 47°18' W 091°18'0 0.0 140 / 11013.2 -7.9 3.0
2017-Dec-15 01:00N 47°18' W 091°18'0 0.0 190 / 31013.9 -6.5 3.2
2017-Dec-15 00:00N 47°18' W 091°18'0 0.0 230 / 41014.2 -7.0 3.1
2017-Dec-14 23:00N 47°18' W 091°18'0 0.0 180 / 41014.6 -6.3 3.1
2017-Dec-14 22:00N 47°18' W 091°18'0 0.0 180 / 21014.2 -6.0 3.1
2017-Dec-14 21:00N 47°18' W 091°18'0 0.0 210 / 21014.2 -5.4 3.2
2017-Dec-14 20:00N 47°18' W 091°18'0 0.0 290 / 21014.2 -5.1 3.2
2017-Dec-14 19:00N 47°18' W 091°18'0 0.0 170 / 21014.9 -5.5 2.9
2017-Dec-14 18:00N 47°18' W 091°18'0 0.0 230 / 21014.9 -6.5 2.8
2017-Dec-14 17:00N 47°18' W 091°18'0 0.0 320 / 51015.6 -7.7 2.8
2017-Dec-14 16:00N 47°18' W 091°18'0 0.0 290 / 41016.3 -8.0 2.8
2017-Dec-14 15:00N 47°18' W 091°18'0 0.0 150 / 11016.3 -9.5 2.9
2017-Dec-14 14:00N 47°18' W 091°18'0 0.0 260 / 21015.6 -11.3 2.9
2017-Dec-14 13:00N 47°18' W 091°18'27511.5 300 / 11015.2 -11.1 2.9
2017-Dec-13 13:00N 46°30' W 084°42'45 6.4 140 / 311008.1 -19.2 3.3
2017-Dec-13 06:00N 46°00' W 083°54'8 8.8 120 / 351009.6 -17.4 0.6
2017-Dec-13 05:03N 45°52' W 083°50'241.7
2017-Dec-13 05:00N 45°54' W 083°48'351.7 160 / 331009.6 -15.1 4.2
2017-Dec-13 04:56N 45°51' W 083°49'510.8
2017-Dec-13 04:30N 45°47' W 083°45'510.7
2017-Dec-13 04:00N 45°43' W 083°41'1121.9
2017-Dec-13 04:00N 45°42' W 083°42'510.5 1009.9 -13.9 4.3
2017-Dec-13 03:30N 45°38' W 083°37'510.5
2017-Dec-13 03:00N 45°34' W 083°33'510.3
2017-Dec-13 02:30N 45°30' W 083°28'510.1
2017-Dec-13 02:00N 45°26' W 083°24'2119.5
2017-Dec-13 02:00N 45°24' W 083°24'3 7.2 1009.6 -12.0 4.5
2017-Dec-13 01:31N 45°22' W 083°20'4 7.7
2017-Dec-13 01:00N 45°18' W 083°18'1010.4 320 / 161009.6 -11.0 4.6
2017-Dec-13 00:00N 45°12' W 083°06'1212.0 320 / 191008.9 -9.8 4.3
2017-Dec-12 23:00N 45°00' W 083°06'6 6.0 300 / 321006.9 -9.6 4.3
2017-Dec-12 22:00N 44°54' W 083°06'1212.0 300 / 301007.6 -9.7 3.7
2017-Dec-12 21:00N 44°42' W 083°06'31 6.2 300 / 341007.2 -10.5 3.8
2017-Dec-12 16:00N 44°12' W 082°54'7 7.4 320 / 251007.6 -10.2 5.0
2017-Dec-12 15:00N 44°06' W 082°48'7 7.4 340 / 301006.2 -9.4 4.6
2017-Dec-12 14:00N 44°00' W 082°42'7 7.4 290 / 271005.9 -8.9 3.9
2017-Dec-12 13:00N 43°54' W 082°36'4 4.3 290 / 301004.9 -7.5 4.3
2017-Dec-12 12:00N 43°54' W 082°30'1212.0 290 / 331003.5 -5.6 4.0
2017-Dec-12 11:00N 43°42' W 082°30'6 6.0 300 / 241004.2 -5.6 3.3
2017-Dec-12 10:00N 43°36' W 082°30'1212.0 290 / 321001.5 -4.2 3.8
2017-Dec-12 09:00N 43°24' W 082°30'1312.8 300 / 271002.2 -2.1 4.4
2017-Dec-12 08:00N 43°12' W 082°24'1212.0 310 / 231001.1 -1.5 4.1
2017-Dec-12 07:00N 43°00' W 082°24'7 7.4 300 / 91002.5 -1.3 4.2
2017-Dec-12 06:00N 42°54' W 082°30'6 6.0 210 / 51002.8 -1.6 4.2
2017-Dec-12 05:00N 42°48' W 082°30'1212.0 020 / 41003.5 -1.4 4.1
2017-Dec-12 04:00N 42°36' W 082°30'1110.7 250 / 61004.5 -0.5 4.0
2017-Dec-12 03:00N 42°30' W 082°42'7 7.5 200 / 111005.4 -0.4 3.8
2017-Dec-12 02:00N 42°24' W 082°48'1110.7 210 / 91006.4 -1.1 2.1
2017-Dec-12 01:00N 42°18' W 083°00'7 7.5 180 / 41007.0 -1.5 1.8
2017-Dec-12 00:00N 42°12' W 083°06'6 6.0 140 / 61007.0 -1.6 1.9
2017-Dec-11 23:00N 42°06' W 083°06'1212.0 140 / 81007.7 -1.0 1.8
2017-Dec-11 22:00N 41°54' W 083°06'7 7.5 170 / 131008.6 -0.6 2.0
2017-Dec-11 21:00N 41°48' W 083°12'1110.8 140 / 141009.0 -0.3 1.8
2017-Dec-11 20:00N 41°42' W 083°24'0 0.0 170 / 101010.0 -0.3 1.5
2017-Dec-11 19:00N 41°42' W 083°24'0 0.0 250 / 81011.0 -0.8 1.0
2017-Dec-11 18:00N 41°42' W 083°24'0 0.0 260 / 91012.7 -1.5 1.0
2017-Dec-11 17:00N 41°42' W 083°24'0 0.0 240 / 61013.7 -2.0 1.0
2017-Dec-11 16:00N 41°42' W 083°24'0 0.0 250 / 81015.4 -2.3 1.0
2017-Dec-11 15:00N 41°42' W 083°24'0 0.0 220 / 81015.7 -3.5 1.0
2017-Dec-11 14:00N 41°42' W 083°24'0 0.0 260 / 31017.4 -2.5 1.0
2017-Dec-11 13:00N 41°42' W 083°24'0 0.0 240 / 41017.4 -2.9 1.0
2017-Dec-11 12:00N 41°42' W 083°24'0 0.0 280 / 41017.4 -3.6 1.0
2017-Dec-11 11:00N 41°42' W 083°24'0 0.0 080 / 21017.1 -3.3 1.4
2017-Dec-11 10:00N 41°42' W 083°24'0 0.0 280 / 51017.8 -3.7 1.2
2017-Dec-11 09:00N 41°42' W 083°24'7 7.5 300 / 81017.1 -3.5 0.3
2017-Dec-11 08:00N 41°48' W 083°18'4 4.5 310 / 111016.4 -2.7 1.8
2017-Dec-11 07:00N 41°48' W 083°12'1110.8 320 / 171015.7 -2.0 2.1
2017-Dec-11 06:00N 41°54' W 083°00'4 4.5 320 / 191015.4 -1.7 2.0
2017-Dec-11 05:00N 41°54' W 082°54'4 4.5 320 / 201014.4 -1.3 2.6
2017-Dec-11 04:00N 41°54' W 082°48'0 0.0 300 / 181014.4 -1.0 2.6
2017-Dec-11 03:00N 41°54' W 082°48'0 0.0 280 / 181014.0 -0.3 2.7
2017-Dec-11 02:00N 41°54' W 082°48'0 0.0 240 / 181013.7 -0.5 2.9
2017-Dec-11 01:00N 41°54' W 082°48'0 0.0 230 / 201013.7 -0.7 2.9
2017-Dec-11 00:00N 41°54' W 082°48'0 0.0 240 / 181013.7 -1.0 3.0
2017-Dec-10 23:00N 41°54' W 082°48'0 0.0 240 / 201013.4 -1.0 3.0
2017-Dec-10 22:00N 41°54' W 082°48'0 0.0 240 / 191013.4 -1.5 3.0
2017-Dec-10 21:00N 41°54' W 082°48'0 0.0 240 / 181012.7 -2.0 3.0
2017-Dec-10 20:00N 41°54' W 082°48'0 0.0 230 / 191012.0 -2.2 3.0
2017-Dec-10 19:00N 41°54' W 082°48'0 0.0 240 / 211012.4 -2.8 3.0
2017-Dec-10 18:00N 41°54' W 082°48'0 0.0 230 / 221012.7 -3.2 3.0
2017-Dec-10 17:00N 41°54' W 082°48'0 0.0 230 / 231013.0 -3.5 3.0
2017-Dec-10 16:00N 41°54' W 082°48'0 0.0 230 / 231014.0 -3.4 2.8
2017-Dec-10 15:00N 41°54' W 082°48'0 0.0 220 / 221014.0 -3.4 2.8
2017-Dec-10 14:00N 41°54' W 082°48'0 0.0 240 / 201014.0 -1.9 2.7
2017-Dec-10 13:00N 41°54' W 082°48'0 0.0 240 / 201013.7 -1.7 2.8
2017-Dec-10 12:00N 41°54' W 082°48'0 0.0 250 / 191014.0 -1.6 2.8
2017-Dec-10 11:00N 41°54' W 082°48'0 0.0 250 / 181013.7 -2.0 2.8
2017-Dec-10 10:00N 41°54' W 082°48'0 0.0 260 / 111013.7 -2.5 2.8
2017-Dec-10 09:00N 41°54' W 082°48'0 0.0 260 / 131013.7 -2.8 2.8
2017-Dec-10 08:00N 41°54' W 082°48'0 0.0 310 / 181013.7 -2.2 2.8
2017-Dec-10 07:00N 41°54' W 082°48'0 0.0 290 / 181013.4 -1.9 2.8
2017-Dec-10 06:00N 41°54' W 082°48'0 0.0 310 / 171013.0 -1.4 2.8
2017-Dec-10 05:00N 41°54' W 082°48'0 0.0 300 / 151012.4 -1.7 2.8
2017-Dec-10 04:00N 41°54' W 082°48'0 0.0 310 / 151012.0 -1.7 2.7
2017-Dec-10 03:00N 41°54' W 082°48'0 0.0 300 / 141011.3 -1.6 2.8
2017-Dec-10 02:00N 41°54' W 082°48'9 8.9 310 / 121011.3 -1.6 3.0
2017-Dec-10 01:00N 41°54' W 083°00'7 7.5 310 / 131011.0 -2.2 2.3
2017-Dec-10 00:00N 42°00' W 083°06'6 6.0 300 / 111010.3 -2.8 2.5
2017-Dec-09 23:00N 42°06' W 083°06'6 6.0 310 / 61009.8 -3.1 2.7
2017-Dec-09 22:00N 42°12' W 083°06'7 7.5 280 / 71008.7 -2.8 2.6
2017-Dec-09 21:00N 42°18' W 083°00'1110.7 320 / 51007.7 -2.6 2.7
2017-Dec-09 20:00N 42°24' W 082°48'7 7.5 270 / 81006.7 -2.5 2.6
2017-Dec-09 19:00N 42°30' W 082°42'7 7.5 200 / 91006.0 -2.4 4.2
2017-Dec-09 18:00N 42°36' W 082°36'7 7.4 200 / 61006.9 -2.2 4.3
2017-Dec-09 17:00N 42°42' W 082°30'1212.0 210 / 71007.2 -2.3 4.4
2017-Dec-09 16:00N 42°54' W 082°30'24 8.1 210 / 81007.6 -2.5 4.4
2017-Dec-09 13:00N 43°18' W 082°24'1212.0 210 / 131006.6 -1.6 5.3
2017-Dec-09 12:00N 43°30' W 082°24'1918.5 180 / 51006.9 -2.6 5.2
2017-Dec-09 11:00N 43°48' W 082°30'1212.0 230 / 101007.2 -2.5 4.4
2017-Dec-09 10:00N 44°00' W 082°30'1312.8 210 / 91007.2 -2.7 5.1
2017-Dec-09 09:00N 44°12' W 082°36'1312.7 200 / 111007.6 -2.3 5.2
2017-Dec-09 08:00N 44°24' W 082°42'4411.0 220 / 111007.9 -2.2 5.2
2017-Dec-09 04:00N 45°06' W 083°00'3613.5 210 / 61008.6 -3.8 4.9
2017-Dec-09 01:20N 45°35' W 083°30'412.2
2017-Dec-09 01:00N 45°38' W 083°34'612.2
2017-Dec-09 00:30N 45°43' W 083°39'2013.3
2017-Dec-08 23:00N 46°00' W 083°54'7 7.3 340 / 61002.8 -7.3 3.4
2017-Dec-08 22:00N 46°06' W 084°00'7 7.3 310 / 101002.8 -7.0 2.4
2017-Dec-08 21:00N 46°12' W 084°06'7 7.3 340 / 61004.2 -7.2 2.3
2017-Dec-08 20:00N 46°18' W 084°12'6 6.0 350 / 121001.8 -7.4 2.7
2017-Dec-08 19:00N 46°24' W 084°12'7 7.3 320 / 101001.5 -7.9 3.1
2017-Dec-08 18:00N 46°30' W 084°18'4 4.1 340 / 151001.5 -7.2 3.3
2017-Dec-08 17:00N 46°30' W 084°24'0 0.0 340 / 9998.6 -7.8 3.4
2017-Dec-08 16:00N 46°30' W 084°24'4 4.1 360 / 13998.3 -7.2 3.5
2017-Dec-08 15:00N 46°30' W 084°30'1010.2 350 / 201001.0 -5.9 3.7
2017-Dec-08 14:00N 46°36' W 084°42'1010.2 340 / 201006.8 -4.0 4.8
2017-Dec-08 13:00N 46°42' W 084°54'1514.5 350 / 191008.5 -3.3 4.9
2017-Dec-08 12:00N 46°54' W 085°06'1212.3 340 / 171003.4 -5.0 4.0
2017-Dec-08 11:00N 46°54' W 085°24'1010.2 350 / 221005.8 -4.4 4.9
2017-Dec-08 10:00N 47°00' W 085°36'   320 / 211006.4 -4.3 4.5

Dump ship's entire track history